Simona X — SV8518 — position and weather

sailwx.info

Track history (hours):
 
Tides and Currents Weather Stations Pressure Air Temp Water Temp Dewpoint Dewpoint Depression Visibility Wind Speed Wind Dir Waves Ship Positions

Simona X

Last reported at 2018-Jun-25 17:30 UTC. Time now 2018-Jun-25 17:50 UTC.
Position N 40°52' E 024°24'.

Length 16 m.

Type: Fishing. MMSI: 239409000.

Date/timePositionNaut miles runAvg speedWind from/ knotsBaromVisibWave heightAir tempDewpointWater temp
2018-Jun-25 17:30N 40°52' E 024°24'0 0.3
2018-Jun-25 17:00N 40°52' E 024°24'0 0.2
2018-Jun-25 16:30N 40°52' E 024°24'1 2.5
2018-Jun-25 16:01N 40°51' E 024°25'3 5.7
2018-Jun-25 15:30N 40°49' E 024°26'2 4.7
2018-Jun-25 15:00N 40°49' E 024°23'3 6.9
2018-Jun-25 14:30N 40°51' E 024°19'0 0.0
2018-Jun-24 22:14N 40°51' E 024°19'1 3.9
2018-Jun-24 22:00N 40°50' E 024°20'4 8.5
2018-Jun-24 21:30N 40°47' E 024°24'1 2.6
2018-Jun-24 21:00N 40°46' E 024°24'0 0.6
2018-Jun-24 20:30N 40°46' E 024°24'0 0.4
2018-Jun-24 20:00N 40°46' E 024°25'1 1.0
2018-Jun-24 19:30N 40°46' E 024°25'0 0.3
2018-Jun-24 19:01N 40°46' E 024°25'0 0.4
2018-Jun-24 18:30N 40°46' E 024°26'0 0.3
2018-Jun-24 18:00N 40°46' E 024°25'1 2.8
2018-Jun-24 17:30N 40°45' E 024°24'2 4.9
2018-Jun-24 17:00N 40°47' E 024°21'3 6.9
2018-Jun-24 16:30N 40°50' E 024°20'1 0.1
2018-Jun-24 00:15N 40°51' E 024°19'0 0.0
2018-Jun-23 23:35N 40°51' E 024°19'0 0.1
2018-Jun-23 23:30N 40°51' E 024°19'0 0.0
2018-Jun-23 19:23N 40°51' E 024°19'0 0.0
2018-Jun-23 18:46N 40°51' E 024°19'0 0.0
2018-Jun-23 18:30N 40°51' E 024°19'0 0.0
2018-Jun-23 18:00N 40°51' E 024°19'0 0.0
2018-Jun-23 17:31N 40°51' E 024°19'0 0.0
2018-Jun-23 17:01N 40°51' E 024°19'0 0.0
2018-Jun-23 13:01N 40°51' E 024°19'0 0.0
2018-Jun-23 13:01N 40°51' E 024°19'0 0.0
2018-Jun-23 12:31N 40°51' E 024°19'0 0.0
2018-Jun-23 10:33N 40°51' E 024°19'0 0.0
2018-Jun-23 10:30N 40°51' E 024°19'0 0.0
2018-Jun-23 10:00N 40°51' E 024°19'1 0.1
2018-Jun-22 23:03N 40°51' E 024°19'0 7.9
2018-Jun-22 23:00N 40°50' E 024°20'4 7.2
2018-Jun-22 22:30N 40°47' E 024°21'4 7.3
2018-Jun-22 22:00N 40°43' E 024°22'1 1.2
2018-Jun-22 21:30N 40°43' E 024°22'0 0.0
2018-Jun-22 21:00N 40°43' E 024°22'0 0.0
2018-Jun-22 20:30N 40°43' E 024°22'0 0.0
2018-Jun-22 20:00N 40°43' E 024°22'0 0.0
2018-Jun-22 19:30N 40°43' E 024°22'0 0.5
2018-Jun-22 19:00N 40°43' E 024°22'0 0.2
2018-Jun-22 18:30N 40°43' E 024°22'1 1.5
2018-Jun-22 18:00N 40°43' E 024°23'0 0.2
2018-Jun-22 17:30N 40°43' E 024°23'3 6.5
2018-Jun-22 17:00N 40°47' E 024°22'4 7.2
2018-Jun-22 16:30N 40°50' E 024°20'0 0.0
2018-Jun-21 23:07N 40°50' E 024°20'1 8.4
2018-Jun-21 23:00N 40°50' E 024°21'4 8.5
2018-Jun-21 22:30N 40°46' E 024°22'2 4.5
2018-Jun-21 22:00N 40°43' E 024°23'0 0.2
2018-Jun-21 21:30N 40°43' E 024°23'0 0.5
2018-Jun-21 21:00N 40°43' E 024°22'1 1.1
2018-Jun-21 20:30N 40°42' E 024°22'0 0.0
2018-Jun-21 20:00N 40°42' E 024°22'0 0.0
2018-Jun-21 19:30N 40°42' E 024°22'0 0.0
2018-Jun-21 19:00N 40°42' E 024°22'1 1.4
2018-Jun-21 18:30N 40°43' E 024°22'0 0.5
2018-Jun-21 18:00N 40°43' E 024°23'1 2.9
2018-Jun-21 17:31N 40°44' E 024°22'4 7.2
2018-Jun-21 17:00N 40°48' E 024°22'3 6.9
2018-Jun-21 16:30N 40°51' E 024°19'2 0.1
2018-Jun-21 02:37N 40°49' E 024°21'1 8.4
2018-Jun-21 02:30N 40°48' E 024°21'4 8.3
2018-Jun-21 02:01N 40°44' E 024°22'2 3.5
2018-Jun-21 01:30N 40°42' E 024°22'0 0.3
2018-Jun-21 01:01N 40°43' E 024°23'0 0.3
2018-Jun-21 00:31N 40°43' E 024°22'0 0.7
2018-Jun-21 00:00N 40°42' E 024°23'2 3.9
2018-Jun-20 23:30N 40°42' E 024°20'4 7.5
2018-Jun-20 23:01N 40°42' E 024°15'4 7.4
2018-Jun-20 22:30N 40°43' E 024°10'1 2.8
2018-Jun-20 22:00N 40°43' E 024°09'1 1.1
2018-Jun-20 21:30N 40°42' E 024°08'1 1.5
2018-Jun-20 21:00N 40°43' E 024°09'0 0.0
2018-Jun-20 20:30N 40°43' E 024°09'0 0.0
2018-Jun-20 20:00N 40°43' E 024°09'0 0.0
2018-Jun-20 19:30N 40°43' E 024°09'0 0.0
2018-Jun-20 19:00N 40°43' E 024°09'0 0.5
2018-Jun-20 18:30N 40°43' E 024°09'1 2.9
2018-Jun-20 18:00N 40°44' E 024°10'1 2.6
2018-Jun-20 17:30N 40°44' E 024°12'3 5.2
2018-Jun-20 17:00N 40°44' E 024°15'4 7.3
2018-Jun-20 16:30N 40°47' E 024°18'3 6.2
2018-Jun-20 16:00N 40°50' E 024°20'1 0.0
2018-Jun-19 20:56N 40°51' E 024°19'3 5.9
2018-Jun-19 20:30N 40°48' E 024°19'4 7.5
2018-Jun-19 20:00N 40°46' E 024°15'4 7.9
2018-Jun-19 19:30N 40°44' E 024°11'0 0.3
2018-Jun-19 19:00N 40°44' E 024°11'0 0.1
2018-Jun-19 18:31N 40°44' E 024°11'0 0.3
2018-Jun-19 18:00N 40°44' E 024°11'2 4.7
2018-Jun-19 17:30N 40°45' E 024°14'4 7.9
2018-Jun-19 17:00N 40°47' E 024°18'3 6.9
2018-Jun-19 16:30N 40°50' E 024°20'1 0.2
2018-Jun-19 09:10N 40°51' E 024°19'0 0.0
2018-Jun-19 08:49N 40°51' E 024°19'0 0.0
2018-Jun-19 08:30N 40°51' E 024°19'1 0.1
2018-Jun-18 22:43N 40°50' E 024°20'1 6.2
2018-Jun-18 22:30N 40°49' E 024°20'4 7.9
2018-Jun-18 22:01N 40°46' E 024°16'4 8.3
2018-Jun-18 21:30N 40°43' E 024°12'0 0.5
2018-Jun-18 21:00N 40°43' E 024°11'0 0.0
2018-Jun-18 20:30N 40°43' E 024°11'1 1.2
2018-Jun-18 20:00N 40°44' E 024°12'0 0.0
2018-Jun-18 19:29N 40°44' E 024°12'0 0.0
2018-Jun-18 19:00N 40°44' E 024°12'0 0.0
2018-Jun-18 18:30N 40°44' E 024°12'0 0.4
2018-Jun-18 18:00N 40°44' E 024°12'2 3.2
2018-Jun-18 17:30N 40°44' E 024°14'4 7.7
2018-Jun-18 17:00N 40°47' E 024°17'4 7.8
2018-Jun-18 16:30N 40°50' E 024°20'1 0.0
2018-Jun-17 23:58N 40°50' E 024°20'3 6.8
2018-Jun-17 23:30N 40°47' E 024°18'4 8.1
2018-Jun-17 23:00N 40°45' E 024°14'1 2.6
2018-Jun-17 22:30N 40°44' E 024°13'0 0.2
2018-Jun-17 22:00N 40°44' E 024°13'1 1.4
2018-Jun-17 21:30N 40°44' E 024°12'0 0.0
2018-Jun-17 21:00N 40°44' E 024°12'0 0.0
2018-Jun-17 20:30N 40°44' E 024°12'0 0.1
2018-Jun-17 20:00N 40°44' E 024°12'0 0.1
2018-Jun-17 19:30N 40°44' E 024°12'0 0.0
2018-Jun-17 19:00N 40°44' E 024°12'0 0.0
2018-Jun-17 18:30N 40°44' E 024°12'0 0.4
2018-Jun-17 18:00N 40°44' E 024°12'1 2.2
2018-Jun-17 17:30N 40°44' E 024°14'4 7.1
2018-Jun-17 17:00N 40°47' E 024°17'4 7.5
2018-Jun-17 16:30N 40°49' E 024°20'2 0.1
2018-Jun-17 02:10N 40°51' E 024°19'0 0.0
2018-Jun-17 02:01N 40°51' E 024°19'0 0.0
2018-Jun-17 01:30N 40°51' E 024°19'0 0.0
2018-Jun-17 01:01N 40°51' E 024°19'0 0.0
2018-Jun-16 15:44N 40°51' E 024°19'0 0.0
2018-Jun-16 15:24N 40°51' E 024°19'0 0.0
2018-Jun-16 15:00N 40°51' E 024°19'0 0.0
2018-Jun-16 14:30N 40°51' E 024°19'0 0.0
2018-Jun-16 14:00N 40°51' E 024°19'0 0.0
2018-Jun-16 13:31N 40°51' E 024°19'0 0.0
2018-Jun-16 13:00N 40°51' E 024°19'0 0.0
2018-Jun-16 12:30N 40°51' E 024°19'0 0.0
2018-Jun-16 11:59N 40°51' E 024°19'0 0.0
2018-Jun-16 11:30N 40°51' E 024°19'0 0.0
2018-Jun-16 11:00N 40°51' E 024°19'0 0.0
2018-Jun-16 10:30N 40°51' E 024°19'0 0.0
2018-Jun-16 08:59N 40°51' E 024°19'0 0.0
2018-Jun-16 08:30N 40°51' E 024°19'1 0.1
2018-Jun-15 22:36N 40°50' E 024°20'1 5.1
2018-Jun-15 22:30N 40°50' E 024°21'1 2.4
2018-Jun-15 22:00N 40°48' E 024°21'0 0.6
2018-Jun-15 21:31N 40°48' E 024°21'0 0.1
2018-Jun-15 21:00N 40°48' E 024°21'0 0.3
2018-Jun-15 20:31N 40°48' E 024°21'0 0.7
2018-Jun-15 20:00N 40°48' E 024°21'0 0.3
2018-Jun-15 19:29N 40°49' E 024°21'2 4.7
2018-Jun-15 19:01N 40°47' E 024°23'3 5.5
2018-Jun-15 18:31N 40°46' E 024°26'2 3.2
2018-Jun-15 18:01N 40°47' E 024°27'3 5.1
2018-Jun-15 17:31N 40°46' E 024°24'  
Track history (hours):
 
Tides and Currents Weather Stations Pressure Air Temp Water Temp Dewpoint Dewpoint Depression Visibility Wind Speed Wind Dir Waves Ship Positions

Simona X

Last reported at 2018-Jun-25 17:30 UTC. Time now 2018-Jun-25 17:50 UTC.
Position N 40°52' E 024°24'.

Length 16 m.

Type: Fishing. MMSI: 239409000.

Date/timePositionNaut miles runAvg speedWind from/ knotsBaromVisibWave heightAir tempDewpointWater temp
2018-Jun-25 17:30N 40°52' E 024°24'0 0.3
2018-Jun-25 17:00N 40°52' E 024°24'0 0.2
2018-Jun-25 16:30N 40°52' E 024°24'1 2.5
2018-Jun-25 16:01N 40°51' E 024°25'3 5.7
2018-Jun-25 15:30N 40°49' E 024°26'2 4.7
2018-Jun-25 15:00N 40°49' E 024°23'3 6.9
2018-Jun-25 14:30N 40°51' E 024°19'0 0.0
2018-Jun-24 22:14N 40°51' E 024°19'1 3.9
2018-Jun-24 22:00N 40°50' E 024°20'4 8.5
2018-Jun-24 21:30N 40°47' E 024°24'1 2.6
2018-Jun-24 21:00N 40°46' E 024°24'0 0.6
2018-Jun-24 20:30N 40°46' E 024°24'0 0.4
2018-Jun-24 20:00N 40°46' E 024°25'1 1.0
2018-Jun-24 19:30N 40°46' E 024°25'0 0.3
2018-Jun-24 19:01N 40°46' E 024°25'0 0.4
2018-Jun-24 18:30N 40°46' E 024°26'0 0.3
2018-Jun-24 18:00N 40°46' E 024°25'1 2.8
2018-Jun-24 17:30N 40°45' E 024°24'2 4.9
2018-Jun-24 17:00N 40°47' E 024°21'3 6.9
2018-Jun-24 16:30N 40°50' E 024°20'1 0.1
2018-Jun-24 00:15N 40°51' E 024°19'0 0.0
2018-Jun-23 23:35N 40°51' E 024°19'0 0.1
2018-Jun-23 23:30N 40°51' E 024°19'0 0.0
2018-Jun-23 19:23N 40°51' E 024°19'0 0.0
2018-Jun-23 18:46N 40°51' E 024°19'0 0.0
2018-Jun-23 18:30N 40°51' E 024°19'0 0.0
2018-Jun-23 18:00N 40°51' E 024°19'0 0.0
2018-Jun-23 17:31N 40°51' E 024°19'0 0.0
2018-Jun-23 17:01N 40°51' E 024°19'0 0.0
2018-Jun-23 13:01N 40°51' E 024°19'0 0.0
2018-Jun-23 13:01N 40°51' E 024°19'0 0.0
2018-Jun-23 12:31N 40°51' E 024°19'0 0.0
2018-Jun-23 10:33N 40°51' E 024°19'0 0.0
2018-Jun-23 10:30N 40°51' E 024°19'0 0.0
2018-Jun-23 10:00N 40°51' E 024°19'1 0.1
2018-Jun-22 23:03N 40°51' E 024°19'0 7.9
2018-Jun-22 23:00N 40°50' E 024°20'4 7.2
2018-Jun-22 22:30N 40°47' E 024°21'4 7.3
2018-Jun-22 22:00N 40°43' E 024°22'1 1.2
2018-Jun-22 21:30N 40°43' E 024°22'0 0.0
2018-Jun-22 21:00N 40°43' E 024°22'0 0.0
2018-Jun-22 20:30N 40°43' E 024°22'0 0.0
2018-Jun-22 20:00N 40°43' E 024°22'0 0.0
2018-Jun-22 19:30N 40°43' E 024°22'0 0.5
2018-Jun-22 19:00N 40°43' E 024°22'0 0.2
2018-Jun-22 18:30N 40°43' E 024°22'1 1.5
2018-Jun-22 18:00N 40°43' E 024°23'0 0.2
2018-Jun-22 17:30N 40°43' E 024°23'3 6.5
2018-Jun-22 17:00N 40°47' E 024°22'4 7.2
2018-Jun-22 16:30N 40°50' E 024°20'0 0.0
2018-Jun-21 23:07N 40°50' E 024°20'1 8.4
2018-Jun-21 23:00N 40°50' E 024°21'4 8.5
2018-Jun-21 22:30N 40°46' E 024°22'2 4.5
2018-Jun-21 22:00N 40°43' E 024°23'0 0.2
2018-Jun-21 21:30N 40°43' E 024°23'0 0.5
2018-Jun-21 21:00N 40°43' E 024°22'1 1.1
2018-Jun-21 20:30N 40°42' E 024°22'0 0.0
2018-Jun-21 20:00N 40°42' E 024°22'0 0.0
2018-Jun-21 19:30N 40°42' E 024°22'0 0.0
2018-Jun-21 19:00N 40°42' E 024°22'1 1.4
2018-Jun-21 18:30N 40°43' E 024°22'0 0.5
2018-Jun-21 18:00N 40°43' E 024°23'1 2.9
2018-Jun-21 17:31N 40°44' E 024°22'4 7.2
2018-Jun-21 17:00N 40°48' E 024°22'3 6.9
2018-Jun-21 16:30N 40°51' E 024°19'2 0.1
2018-Jun-21 02:37N 40°49' E 024°21'1 8.4
2018-Jun-21 02:30N 40°48' E 024°21'4 8.3
2018-Jun-21 02:01N 40°44' E 024°22'2 3.5
2018-Jun-21 01:30N 40°42' E 024°22'0 0.3
2018-Jun-21 01:01N 40°43' E 024°23'0 0.3
2018-Jun-21 00:31N 40°43' E 024°22'0 0.7
2018-Jun-21 00:00N 40°42' E 024°23'2 3.9
2018-Jun-20 23:30N 40°42' E 024°20'4 7.5
2018-Jun-20 23:01N 40°42' E 024°15'4 7.4
2018-Jun-20 22:30N 40°43' E 024°10'1 2.8
2018-Jun-20 22:00N 40°43' E 024°09'1 1.1
2018-Jun-20 21:30N 40°42' E 024°08'1 1.5
2018-Jun-20 21:00N 40°43' E 024°09'0 0.0
2018-Jun-20 20:30N 40°43' E 024°09'0 0.0
2018-Jun-20 20:00N 40°43' E 024°09'0 0.0
2018-Jun-20 19:30N 40°43' E 024°09'0 0.0
2018-Jun-20 19:00N 40°43' E 024°09'0 0.5
2018-Jun-20 18:30N 40°43' E 024°09'1 2.9
2018-Jun-20 18:00N 40°44' E 024°10'1 2.6
2018-Jun-20 17:30N 40°44' E 024°12'3 5.2
2018-Jun-20 17:00N 40°44' E 024°15'4 7.3
2018-Jun-20 16:30N 40°47' E 024°18'3 6.2
2018-Jun-20 16:00N 40°50' E 024°20'1 0.0
2018-Jun-19 20:56N 40°51' E 024°19'3 5.9
2018-Jun-19 20:30N 40°48' E 024°19'4 7.5
2018-Jun-19 20:00N 40°46' E 024°15'4 7.9
2018-Jun-19 19:30N 40°44' E 024°11'0 0.3
2018-Jun-19 19:00N 40°44' E 024°11'0 0.1
2018-Jun-19 18:31N 40°44' E 024°11'0 0.3
2018-Jun-19 18:00N 40°44' E 024°11'2 4.7
2018-Jun-19 17:30N 40°45' E 024°14'4 7.9
2018-Jun-19 17:00N 40°47' E 024°18'3 6.9
2018-Jun-19 16:30N 40°50' E 024°20'1 0.2
2018-Jun-19 09:10N 40°51' E 024°19'0 0.0
2018-Jun-19 08:49N 40°51' E 024°19'0 0.0
2018-Jun-19 08:30N 40°51' E 024°19'1 0.1
2018-Jun-18 22:43N 40°50' E 024°20'1 6.2
2018-Jun-18 22:30N 40°49' E 024°20'4 7.9
2018-Jun-18 22:01N 40°46' E 024°16'4 8.3
2018-Jun-18 21:30N 40°43' E 024°12'0 0.5
2018-Jun-18 21:00N 40°43' E 024°11'0 0.0
2018-Jun-18 20:30N 40°43' E 024°11'1 1.2
2018-Jun-18 20:00N 40°44' E 024°12'0 0.0
2018-Jun-18 19:29N 40°44' E 024°12'0 0.0
2018-Jun-18 19:00N 40°44' E 024°12'0 0.0
2018-Jun-18 18:30N 40°44' E 024°12'0 0.4
2018-Jun-18 18:00N 40°44' E 024°12'2 3.2
2018-Jun-18 17:30N 40°44' E 024°14'4 7.7
2018-Jun-18 17:00N 40°47' E 024°17'4 7.8
2018-Jun-18 16:30N 40°50' E 024°20'1 0.0
2018-Jun-17 23:58N 40°50' E 024°20'3 6.8
2018-Jun-17 23:30N 40°47' E 024°18'4 8.1
2018-Jun-17 23:00N 40°45' E 024°14'1 2.6
2018-Jun-17 22:30N 40°44' E 024°13'0 0.2
2018-Jun-17 22:00N 40°44' E 024°13'1 1.4
2018-Jun-17 21:30N 40°44' E 024°12'0 0.0
2018-Jun-17 21:00N 40°44' E 024°12'0 0.0
2018-Jun-17 20:30N 40°44' E 024°12'0 0.1
2018-Jun-17 20:00N 40°44' E 024°12'0 0.1
2018-Jun-17 19:30N 40°44' E 024°12'0 0.0
2018-Jun-17 19:00N 40°44' E 024°12'0 0.0
2018-Jun-17 18:30N 40°44' E 024°12'0 0.4
2018-Jun-17 18:00N 40°44' E 024°12'1 2.2
2018-Jun-17 17:30N 40°44' E 024°14'4 7.1
2018-Jun-17 17:00N 40°47' E 024°17'4 7.5
2018-Jun-17 16:30N 40°49' E 024°20'2 0.1
2018-Jun-17 02:10N 40°51' E 024°19'0 0.0
2018-Jun-17 02:01N 40°51' E 024°19'0 0.0
2018-Jun-17 01:30N 40°51' E 024°19'0 0.0
2018-Jun-17 01:01N 40°51' E 024°19'0 0.0
2018-Jun-16 15:44N 40°51' E 024°19'0 0.0
2018-Jun-16 15:24N 40°51' E 024°19'0 0.0
2018-Jun-16 15:00N 40°51' E 024°19'0 0.0
2018-Jun-16 14:30N 40°51' E 024°19'0 0.0
2018-Jun-16 14:00N 40°51' E 024°19'0 0.0
2018-Jun-16 13:31N 40°51' E 024°19'0 0.0
2018-Jun-16 13:00N 40°51' E 024°19'0 0.0
2018-Jun-16 12:30N 40°51' E 024°19'0 0.0
2018-Jun-16 11:59N 40°51' E 024°19'0 0.0
2018-Jun-16 11:30N 40°51' E 024°19'0 0.0
2018-Jun-16 11:00N 40°51' E 024°19'0 0.0
2018-Jun-16 10:30N 40°51' E 024°19'0 0.0
2018-Jun-16 08:59N 40°51' E 024°19'0 0.0
2018-Jun-16 08:30N 40°51' E 024°19'1 0.1
2018-Jun-15 22:36N 40°50' E 024°20'1 5.1
2018-Jun-15 22:30N 40°50' E 024°21'1 2.4
2018-Jun-15 22:00N 40°48' E 024°21'0 0.6
2018-Jun-15 21:31N 40°48' E 024°21'0 0.1
2018-Jun-15 21:00N 40°48' E 024°21'0 0.3
2018-Jun-15 20:31N 40°48' E 024°21'0 0.7
2018-Jun-15 20:00N 40°48' E 024°21'0 0.3
2018-Jun-15 19:29N 40°49' E 024°21'2 4.7
2018-Jun-15 19:01N 40°47' E 024°23'3 5.5
2018-Jun-15 18:31N 40°46' E 024°26'2 3.2
2018-Jun-15 18:01N 40°47' E 024°27'3 5.1
2018-Jun-15 17:31N 40°46' E 024°24'  

Dump ship's entire track history